Terminal Aerodrome Forecast
Issued by NWS

Home | Current Version | Previous Version | Text Only | Print | Product List | Glossary On
Versions: 1 2 3 4 5 6 7 8 9 10 11 12 13 14 15 16 17
961
FTUS43 KSGF 250520
TAFBBG
TAF
KBBG 250520Z 2506/2606 VRB03KT P6SM SKC
     FM251000 VRB03KT 6SM BR SKC
     FM251500 15008KT P6SM SCT050=

USA.gov is the U.S. government's official web portal to all federal, state and local government web resources and services.